Time;durP1;ratioP1;P1;durP2;ratioP2;P2;SDS_P1;SDS_P2;PMS_P1;PMS_P2;Temp;Humidity;BMP_temperature;BMP_pressure;BME280_temperature;BME280_humidity;BME280_pressure;Samples;Min_cycle;Max_cycle;Signal;HPM_P1;HPM_P2
2022/07/10 00:01:35;;;;;;;0.10;0.10;;;;;;;;;;6142389;23;20075;-92
2022/07/10 00:04:04;;;;;;;0.10;0.10;;;;;;;;;;6142308;23;20023;-91
2022/07/10 00:06:31;;;;;;;0.10;0.10;;;;;;;;;;6165239;23;20046;-92
2022/07/10 00:09:00;;;;;;;0.10;0.10;;;;;;;;;;6166697;23;20051;-91
2022/07/10 00:11:26;;;;;;;0.10;0.10;;;;;;;;;;6140440;23;20014;-91
2022/07/10 00:13:52;;;;;;;0.10;0.10;;;;;;;;;;6140729;23;20342;-91
2022/07/10 00:16:18;;;;;;;0.10;0.10;;;;;;;;;;6165606;23;20014;-90
2022/07/10 00:18:44;;;;;;;0.10;0.10;;;;;;;;;;6140719;23;20013;-91
2022/07/10 00:21:11;;;;;;;0.10;0.10;;;;;;;;;;6165515;23;20067;-91
2022/07/10 00:23:37;;;;;;;0.10;0.10;;;;;;;;;;6140732;23;20096;-91
2022/07/10 00:26:03;;;;;;;0.10;0.10;;;;;;;;;;6140850;23;20016;-91
2022/07/10 00:28:29;;;;;;;0.10;0.10;;;;;;;;;;6140785;23;20509;-91
2022/07/10 00:30:55;;;;;;;0.10;0.10;;;;;;;;;;6140565;23;20037;-90
2022/07/10 00:33:21;;;;;;;0.10;0.10;;;;;;;;;;6140968;23;20135;-90
2022/07/10 00:35:47;;;;;;;0.10;0.10;;;;;;;;;;6140242;23;20016;-90
2022/07/10 00:38:13;;;;;;;0.10;0.10;;;;;;;;;;6140186;23;20008;-91
2022/07/10 00:40:42;;;;;;;0.10;0.10;;;;;;;;;;6164984;23;20008;-91
2022/07/10 00:43:09;;;;;;;0.10;0.10;;;;;;;;;;6140898;23;20342;-91
2022/07/10 00:45:35;;;;;;;0.10;0.10;;;;;;;;;;6141178;23;20020;-91
2022/07/10 00:48:01;;;;;;;0.10;0.10;;;;;;;;;;6141029;23;20012;-91
2022/07/10 00:50:27;;;;;;;0.10;0.10;;;;;;;;;;6140308;23;20038;-92
2022/07/10 00:52:53;;;;;;;0.10;0.10;;;;;;;;;;6140358;23;20044;-90
2022/07/10 00:55:19;;;;;;;0.10;0.10;;;;;;;;;;6140894;23;20023;-91
2022/07/10 00:57:45;;;;;;;0.10;0.10;;;;;;;;;;6140581;23;20017;-91
2022/07/10 01:00:11;;;;;;;0.20;0.20;;;;;;;;;;6191986;23;20429;-90
2022/07/10 01:02:39;;;;;;;0.10;0.10;;;;;;;;;;6194634;23;20467;-90
2022/07/10 01:05:05;;;;;;;0.10;0.10;;;;;;;;;;6219672;23;20024;-90
2022/07/10 01:07:31;;;;;;;0.10;0.10;;;;;;;;;;6194856;23;20390;-90
2022/07/10 01:09:59;;;;;;;0.10;0.10;;;;;;;;;;6194368;23;20385;-91
2022/07/10 01:12:25;;;;;;;0.10;0.10;;;;;;;;;;6194714;23;20015;-90
2022/07/10 01:14:51;;;;;;;0.10;0.10;;;;;;;;;;6194472;23;20019;-91
2022/07/10 01:17:17;;;;;;;0.10;0.10;;;;;;;;;;6194797;23;20004;-91
2022/07/10 01:19:43;;;;;;;0.10;0.10;;;;;;;;;;6194207;23;20016;-90
2022/07/10 01:22:09;;;;;;;0.10;0.10;;;;;;;;;;6194037;23;20016;-91
2022/07/10 01:24:35;;;;;;;0.10;0.10;;;;;;;;;;6220086;23;20052;-92
2022/07/10 01:27:02;;;;;;;0.10;0.10;;;;;;;;;;6200085;23;20016;-92
2022/07/10 01:29:28;;;;;;;0.10;0.10;;;;;;;;;;6201005;23;20337;-91
2022/07/10 01:31:54;;;;;;;0.10;0.10;;;;;;;;;;6221025;23;20015;-91
2022/07/10 01:34:20;;;;;;;0.10;0.10;;;;;;;;;;6194304;23;20008;-91
2022/07/10 01:36:46;;;;;;;0.10;0.10;;;;;;;;;;6193974;23;20012;-91
2022/07/10 01:39:12;;;;;;;0.10;0.10;;;;;;;;;;6193723;23;20066;-91
2022/07/10 01:41:38;;;;;;;0.10;0.10;;;;;;;;;;6194036;23;20092;-91
2022/07/10 01:44:04;;;;;;;0.10;0.10;;;;;;;;;;6194070;23;20016;-91
2022/07/10 01:46:30;;;;;;;0.10;0.10;;;;;;;;;;6193795;23;20016;-91
2022/07/10 01:48:57;;;;;;;0.10;0.10;;;;;;;;;;6193916;23;20459;-91
2022/07/10 01:51:23;;;;;;;0.10;0.10;;;;;;;;;;6218866;23;20019;-91
2022/07/10 01:53:49;;;;;;;0.10;0.10;;;;;;;;;;6194064;23;20012;-91
2022/07/10 01:56:15;;;;;;;0.10;0.10;;;;;;;;;;6193853;23;20008;-91
2022/07/10 01:58:41;;;;;;;0.10;0.10;;;;;;;;;;6188329;23;20020;-91
2022/07/10 02:01:07;;;;;;;0.10;0.10;;;;;;;;;;6163366;23;20070;-90
2022/07/10 02:06:17;;;;;;;0.10;0.10;;;;;;;;;;6190543;23;20029;-91
2022/07/10 02:08:43;;;;;;;0.10;0.10;;;;;;;;;;6188291;23;20017;-90
2022/07/10 02:11:10;;;;;;;0.10;0.10;;;;;;;;;;6163305;23;20020;-92
2022/07/10 02:13:36;;;;;;;0.10;0.10;;;;;;;;;;6163248;23;20015;-91
2022/07/10 02:16:02;;;;;;;0.10;0.10;;;;;;;;;;6187898;23;20438;-91
2022/07/10 02:18:28;;;;;;;0.10;0.10;;;;;;;;;;6188250;23;20020;-90
2022/07/10 02:20:54;;;;;;;0.10;0.10;;;;;;;;;;6188415;23;20442;-91
2022/07/10 02:23:20;;;;;;;0.10;0.10;;;;;;;;;;6164201;23;20023;-91
2022/07/10 02:25:46;;;;;;;0.10;0.10;;;;;;;;;;6188168;23;20013;-91
2022/07/10 02:28:12;;;;;;;1.55;0.30;;;;;;;;;;6163446;23;20457;-91
2022/07/10 02:30:38;;;;;;;0.10;0.10;;;;;;;;;;6187910;23;20020;-91
2022/07/10 02:33:04;;;;;;;0.10;0.10;;;;;;;;;;6188345;23;20044;-92
2022/07/10 02:35:30;;;;;;;0.10;0.10;;;;;;;;;;6163354;23;20008;-92
2022/07/10 02:37:56;;;;;;;0.10;0.10;;;;;;;;;;6163239;23;20438;-91
2022/07/10 02:40:23;;;;;;;0.10;0.10;;;;;;;;;;6188797;23;20071;-91
2022/07/10 02:42:49;;;;;;;0.10;0.10;;;;;;;;;;6163967;23;20082;-92
2022/07/10 02:45:16;;;;;;;0.10;0.10;;;;;;;;;;6163563;23;20076;-92
2022/07/10 02:47:42;;;;;;;0.10;0.10;;;;;;;;;;6188126;23;20338;-91
2022/07/10 02:50:08;;;;;;;0.10;0.10;;;;;;;;;;6163255;23;20020;-91
2022/07/10 02:52:34;;;;;;;0.10;0.10;;;;;;;;;;6162397;23;20015;-91
2022/07/10 02:55:00;;;;;;;0.10;0.10;;;;;;;;;;6163488;23;20048;-91
2022/07/10 02:57:26;;;;;;;0.10;0.10;;;;;;;;;;6163150;23;20070;-91
2022/07/10 02:59:54;;;;;;;0.10;0.10;;;;;;;;;;6188359;23;20025;-91
2022/07/10 03:02:20;;;;;;;0.10;0.10;;;;;;;;;;6188218;23;20023;-91
2022/07/10 03:04:46;;;;;;;0.10;0.10;;;;;;;;;;6188957;23;20353;-91
2022/07/10 03:07:12;;;;;;;0.10;0.10;;;;;;;;;;6164809;23;20008;-91
2022/07/10 03:09:38;;;;;;;0.10;0.10;;;;;;;;;;6165239;23;20438;-91
2022/07/10 03:12:04;;;;;;;0.10;0.10;;;;;;;;;;6164947;23;20062;-91
2022/07/10 03:14:30;;;;;;;0.10;0.10;;;;;;;;;;6190471;23;20338;-91
2022/07/10 03:16:56;;;;;;;0.10;0.10;;;;;;;;;;6165259;23;20016;-91
2022/07/10 03:19:22;;;;;;;0.10;0.10;;;;;;;;;;6165129;23;20008;-91
2022/07/10 03:21:48;;;;;;;0.10;0.10;;;;;;;;;;6165272;23;20020;-91
2022/07/10 03:24:14;;;;;;;0.10;0.10;;;;;;;;;;6164865;23;20013;-91
2022/07/10 03:26:40;;;;;;;0.25;0.25;;;;;;;;;;6189629;23;20012;-90
2022/07/10 03:29:06;;;;;;;0.10;0.10;;;;;;;;;;6164564;23;20009;-91
2022/07/10 03:31:32;;;;;;;0.10;0.10;;;;;;;;;;6165214;23;20153;-91
2022/07/10 03:33:58;;;;;;;0.10;0.10;;;;;;;;;;6164904;23;20009;-90
2022/07/10 03:36:24;;;;;;;0.10;0.10;;;;;;;;;;6164853;23;20406;-91
2022/07/10 03:38:50;;;;;;;0.10;0.10;;;;;;;;;;6164588;23;20043;-91
2022/07/10 03:41:16;;;;;;;0.10;0.10;;;;;;;;;;6164714;23;20016;-91
2022/07/10 03:43:42;;;;;;;0.10;0.10;;;;;;;;;;6164912;23;20017;-91
2022/07/10 03:46:08;;;;;;;0.30;0.30;;;;;;;;;;6189836;23;20091;-91
2022/07/10 03:48:34;;;;;;;0.10;0.10;;;;;;;;;;6164637;23;20017;-91
2022/07/10 03:51:00;;;;;;;0.10;0.10;;;;;;;;;;6164605;23;20107;-90
2022/07/10 03:53:26;;;;;;;0.10;0.10;;;;;;;;;;6164666;23;20091;-91
2022/07/10 03:55:52;;;;;;;0.10;0.10;;;;;;;;;;6189369;23;20012;-91
2022/07/10 03:58:18;;;;;;;0.10;0.10;;;;;;;;;;6164121;23;21315;-91
2022/07/10 04:00:44;;;;;;;0.10;0.10;;;;;;;;;;6188316;23;20470;-91
2022/07/10 04:03:10;;;;;;;0.10;0.10;;;;;;;;;;6189417;23;20008;-91
2022/07/10 04:05:36;;;;;;;0.10;0.10;;;;;;;;;;6186745;23;20013;-91
2022/07/10 04:08:02;;;;;;;0.10;0.10;;;;;;;;;;6179351;23;20020;-91
2022/07/10 04:10:28;;;;;;;0.10;0.10;;;;;;;;;;6188984;23;20013;-91
2022/07/10 04:12:54;;;;;;;0.10;0.10;;;;;;;;;;6177798;23;20062;-91
2022/07/10 04:15:20;;;;;;;0.10;0.10;;;;;;;;;;6189154;23;20013;-92
2022/07/10 04:17:47;;;;;;;0.10;0.10;;;;;;;;;;6189444;23;20012;-91
2022/07/10 04:20:13;;;;;;;0.10;0.10;;;;;;;;;;6181290;23;20013;-91
2022/07/10 04:22:39;;;;;;;0.20;0.20;;;;;;;;;;6189067;23;20012;-91
2022/07/10 04:25:05;;;;;;;0.10;0.10;;;;;;;;;;6180460;23;20532;-90
2022/07/10 04:27:31;;;;;;;0.10;0.10;;;;;;;;;;6189336;23;20016;-89
2022/07/10 04:29:59;;;;;;;0.10;0.10;;;;;;;;;;6178606;23;20333;-91
2022/07/10 04:32:25;;;;;;;0.10;0.10;;;;;;;;;;6189602;23;20016;-91
2022/07/10 04:34:51;;;;;;;0.10;0.10;;;;;;;;;;6177574;23;20205;-91
2022/07/10 04:37:17;;;;;;;0.10;0.10;;;;;;;;;;6188927;23;20008;-91
2022/07/10 04:39:44;;;;;;;0.10;0.10;;;;;;;;;;6188435;23;20390;-90
2022/07/10 04:42:10;;;;;;;0.10;0.10;;;;;;;;;;6181026;23;20012;-92
2022/07/10 04:44:36;;;;;;;0.10;0.10;;;;;;;;;;6188821;23;20062;-90
2022/07/10 04:47:02;;;;;;;0.10;0.10;;;;;;;;;;6188823;23;20013;-89
2022/07/10 04:49:28;;;;;;;0.10;0.10;;;;;;;;;;6184669;23;20384;-90
2022/07/10 04:51:54;;;;;;;0.10;0.10;;;;;;;;;;6177150;23;20092;-91
2022/07/10 04:54:20;;;;;;;0.10;0.10;;;;;;;;;;6188970;23;20009;-91
2022/07/10 04:56:46;;;;;;;0.10;0.10;;;;;;;;;;6188860;23;20012;-91
2022/07/10 04:59:12;;;;;;;0.10;0.10;;;;;;;;;;6196466;23;20012;-91
2022/07/10 05:01:38;;;;;;;0.10;0.10;;;;;;;;;;6167135;23;20023;-91
2022/07/10 05:04:04;;;;;;;0.10;0.10;;;;;;;;;;6188720;23;20012;-91
2022/07/10 05:06:30;;;;;;;0.10;0.10;;;;;;;;;;6165676;23;20083;-90
2022/07/10 05:08:56;;;;;;;0.10;0.10;;;;;;;;;;6188628;23;20016;-91
2022/07/10 05:11:23;;;;;;;0.10;0.10;;;;;;;;;;6164041;23;20393;-91
2022/07/10 05:13:49;;;;;;;0.10;0.10;;;;;;;;;;6168819;23;20309;-90
2022/07/10 05:16:18;;;;;;;0.10;0.10;;;;;;;;;;6163721;23;20346;-91
2022/07/10 05:18:44;;;;;;;0.10;0.10;;;;;;;;;;6191479;23;20019;-91
2022/07/10 05:21:10;;;;;;;0.10;0.10;;;;;;;;;;6188326;23;20485;-90
2022/07/10 05:23:36;;;;;;;0.10;0.10;;;;;;;;;;6166229;23;20091;-91
2022/07/10 05:26:02;;;;;;;0.10;0.10;;;;;;;;;;6188893;23;20016;-91
2022/07/10 05:28:28;;;;;;;0.10;0.10;;;;;;;;;;6164565;23;20012;-90
2022/07/10 05:30:54;;;;;;;0.10;0.10;;;;;;;;;;6190114;23;20055;-91
2022/07/10 05:33:20;;;;;;;0.10;0.10;;;;;;;;;;6165879;23;20013;-90
2022/07/10 05:35:46;;;;;;;0.10;0.10;;;;;;;;;;6168023;23;20008;-91
2022/07/10 05:38:12;;;;;;;0.10;0.10;;;;;;;;;;6188605;23;20453;-89
2022/07/10 05:40:38;;;;;;;0.10;0.10;;;;;;;;;;6167157;23;20008;-91
2022/07/10 05:43:04;;;;;;;0.10;0.10;;;;;;;;;;6188542;23;20008;-90
2022/07/10 05:45:30;;;;;;;0.10;0.10;;;;;;;;;;6165103;23;20021;-91
2022/07/10 05:47:56;;;;;;;0.10;0.10;;;;;;;;;;6188444;23;20017;-90
2022/07/10 05:50:22;;;;;;;0.10;0.10;;;;;;;;;;6187989;23;20020;-91
2022/07/10 05:52:48;;;;;;;0.10;0.10;;;;;;;;;;6168586;23;20015;-90
2022/07/10 05:55:15;;;;;;;0.10;0.10;;;;;;;;;;6164216;23;20088;-91
2022/07/10 05:57:41;;;;;;;0.20;0.20;;;;;;;;;;6190398;23;20013;-91
2022/07/10 06:00:07;;;;;;;0.10;0.10;;;;;;;;;;6187941;23;20017;-90
2022/07/10 06:02:33;;;;;;;0.10;0.10;;;;;;;;;;6165914;23;20016;-91
2022/07/10 06:05:03;;;;;;;0.10;0.10;;;;;;;;;;6213200;23;20078;-91
2022/07/10 06:07:29;;;;;;;0.10;0.10;;;;;;;;;;6214767;23;20022;-90
2022/07/10 06:09:55;;;;;;;0.10;0.10;;;;;;;;;;6188191;23;20017;-89
2022/07/10 06:12:21;;;;;;;0.10;0.10;;;;;;;;;;6163948;23;20016;-90
2022/07/10 06:14:47;;;;;;;0.10;0.10;;;;;;;;;;6168021;23;20012;-90
2022/07/10 06:17:13;;;;;;;0.10;0.10;;;;;;;;;;6188327;23;20092;-91
2022/07/10 06:19:39;;;;;;;0.10;0.10;;;;;;;;;;6191462;23;20065;-90
2022/07/10 06:24:50;;;;;;;0.10;0.10;;;;;;;;;;6194913;23;20016;-90
2022/07/10 06:27:16;;;;;;;0.10;0.10;;;;;;;;;;6219704;23;20035;-91
2022/07/10 06:29:42;;;;;;;0.10;0.10;;;;;;;;;;6201988;23;20031;-90
2022/07/10 06:32:08;;;;;;;0.10;0.10;;;;;;;;;;6197111;23;20016;-90
2022/07/10 06:34:35;;;;;;;0.10;0.10;;;;;;;;;;6167419;23;20055;-91
2022/07/10 06:37:02;;;;;;;0.10;0.10;;;;;;;;;;6189119;23;20021;-91
2022/07/10 06:39:33;;;;;;;0.10;0.10;;;;;;;;;;6190933;23;20023;-91
2022/07/10 06:42:00;;;;;;;0.20;0.20;;;;;;;;;;6191009;23;20012;-91
2022/07/10 06:44:26;;;;;;;0.10;0.10;;;;;;;;;;6190810;23;20013;-91
2022/07/10 06:49:36;;;;;;;0.10;0.10;;;;;;;;;;6193307;23;20021;-92
2022/07/10 06:52:02;;;;;;;0.10;0.10;;;;;;;;;;6190577;23;20066;-90
2022/07/10 06:54:31;;;;;;;0.10;0.10;;;;;;;;;;6192498;23;20334;-91
2022/07/10 06:56:57;;;;;;;0.10;0.10;;;;;;;;;;6190322;23;20319;-88
2022/07/10 06:59:23;;;;;;;0.10;0.10;;;;;;;;;;6167389;23;20091;-91
2022/07/10 07:01:49;;;;;;;0.10;0.10;;;;;;;;;;6165784;23;20075;-91
2022/07/10 07:04:15;;;;;;;0.10;0.10;;;;;;;;;;6166997;23;20020;-91
2022/07/10 07:06:41;;;;;;;0.10;0.10;;;;;;;;;;6169577;23;20434;-91
2022/07/10 07:09:07;;;;;;;0.10;0.10;;;;;;;;;;6199143;23;20024;-91
2022/07/10 07:11:33;;;;;;;0.10;0.10;;;;;;;;;;6185272;23;20016;-90
2022/07/10 07:13:59;;;;;;;0.10;0.10;;;;;;;;;;6210742;23;20013;-91
2022/07/10 07:16:38;;;;;;;0.10;0.10;;;;;;;;;;6181261;23;20024;-92
2022/07/10 07:19:05;;;;;;;0.10;0.10;;;;;;;;;;6196268;23;20011;-92
2022/07/10 07:24:18;;;;;;;0.10;0.10;;;;;;;;;;6190137;23;20024;-92
2022/07/10 07:26:46;;;;;;;0.10;0.10;;;;;;;;;;6194390;23;20047;-93
2022/07/10 07:29:13;;;;;;;0.10;0.10;;;;;;;;;;6190179;23;20016;-92
2022/07/10 07:31:39;;;;;;;0.10;0.10;;;;;;;;;;6168728;23;20028;-91
2022/07/10 07:34:05;;;;;;;0.10;0.10;;;;;;;;;;6191197;23;20017;-92
2022/07/10 07:36:31;;;;;;;0.10;0.10;;;;;;;;;;6191954;23;20015;-91
2022/07/10 07:38:57;;;;;;;0.10;0.10;;;;;;;;;;6189848;23;20028;-92
2022/07/10 07:41:23;;;;;;;0.10;0.10;;;;;;;;;;6165025;23;20012;-92
2022/07/10 07:43:49;;;;;;;0.10;0.10;;;;;;;;;;6165503;23;20035;-91
2022/07/10 07:46:15;;;;;;;0.10;0.10;;;;;;;;;;6165250;23;20016;-92
2022/07/10 07:48:42;;;;;;;0.10;0.10;;;;;;;;;;6168525;23;20027;-91
2022/07/10 07:51:08;;;;;;;0.20;0.20;;;;;;;;;;6189733;23;20016;-92
2022/07/10 07:53:37;;;;;;;0.10;0.10;;;;;;;;;;6167376;23;20088;-93
2022/07/10 07:56:03;;;;;;;0.10;0.10;;;;;;;;;;6190616;23;20020;-91
2022/07/10 07:58:29;;;;;;;0.10;0.10;;;;;;;;;;6215455;23;20012;-92
2022/07/10 08:00:56;;;;;;;0.10;0.10;;;;;;;;;;6190574;23;20393;-92
2022/07/10 08:03:23;;;;;;;0.10;0.10;;;;;;;;;;6165249;23;20016;-93
2022/07/10 08:05:49;;;;;;;0.10;0.10;;;;;;;;;;6220190;23;20072;-92
2022/07/10 08:08:16;;;;;;;0.20;0.20;;;;;;;;;;6190277;23;20385;-92
2022/07/10 08:10:42;;;;;;;0.15;0.15;;;;;;;;;;6218427;23;20020;-92
2022/07/10 08:13:08;;;;;;;0.10;0.10;;;;;;;;;;6190653;23;20016;-92
2022/07/10 08:15:37;;;;;;;0.10;0.10;;;;;;;;;;6167328;23;20176;-92
2022/07/10 08:18:04;;;;;;;0.10;0.10;;;;;;;;;;6190070;23;20008;-92
2022/07/10 08:20:32;;;;;;;0.10;0.10;;;;;;;;;;6166386;23;20013;-92
2022/07/10 08:23:00;;;;;;;0.10;0.10;;;;;;;;;;6189837;23;20023;-93
2022/07/10 08:25:26;;;;;;;0.10;0.10;;;;;;;;;;6166241;23;20017;-92
2022/07/10 08:27:52;;;;;;;0.20;0.20;;;;;;;;;;6190034;23;20023;-92
2022/07/10 08:30:19;;;;;;;0.10;0.10;;;;;;;;;;6165657;23;20051;-92
2022/07/10 08:32:45;;;;;;;0.20;0.20;;;;;;;;;;6219628;23;20012;-93
2022/07/10 08:35:13;;;;;;;0.10;0.10;;;;;;;;;;6190303;23;20019;-93
2022/07/10 08:37:40;;;;;;;0.10;0.10;;;;;;;;;;6193669;23;20013;-93
2022/07/10 08:40:06;;;;;;;0.10;0.10;;;;;;;;;;6190468;23;20095;-93
2022/07/10 08:42:33;;;;;;;0.10;0.10;;;;;;;;;;6191752;23;20016;-92
2022/07/10 08:44:59;;;;;;;0.10;0.10;;;;;;;;;;6189991;23;20012;-91
2022/07/10 08:47:27;;;;;;;0.20;0.20;;;;;;;;;;6190483;23;20017;-92
2022/07/10 08:49:53;;;;;;;0.10;0.10;;;;;;;;;;6189556;23;20012;-92
2022/07/10 08:52:19;;;;;;;0.10;0.10;;;;;;;;;;6164855;23;20031;-92
2022/07/10 08:54:45;;;;;;;0.10;0.10;;;;;;;;;;6219270;23;20376;-92
2022/07/10 08:57:11;;;;;;;0.10;0.10;;;;;;;;;;6189741;23;20019;-93
2022/07/10 08:59:37;;;;;;;0.10;0.10;;;;;;;;;;6216691;23;20012;-93
2022/07/10 09:02:03;;;;;;;0.10;0.10;;;;;;;;;;6187777;23;20016;-92
2022/07/10 09:04:29;;;;;;;0.10;0.10;;;;;;;;;;6165330;23;20009;-92
2022/07/10 09:07:04;;;;;;;0.10;0.10;;;;;;;;;;6189406;23;20531;-92
2022/07/10 09:09:30;;;;;;;0.20;0.20;;;;;;;;;;6215473;23;20012;-92
2022/07/10 09:11:59;;;;;;;0.10;0.10;;;;;;;;;;6188861;23;20410;-91
2022/07/10 09:14:27;;;;;;;0.10;0.10;;;;;;;;;;6214297;23;20008;-92
2022/07/10 09:16:53;;;;;;;0.10;0.10;;;;;;;;;;6189605;23;20008;-91
2022/07/10 09:19:23;;;;;;;0.10;0.10;;;;;;;;;;6164643;23;20019;-91
2022/07/10 09:21:50;;;;;;;0.20;0.20;;;;;;;;;;6165238;23;20024;-91
2022/07/10 09:24:19;;;;;;;0.10;0.10;;;;;;;;;;6165144;23;20024;-92
2022/07/10 09:26:46;;;;;;;0.10;0.10;;;;;;;;;;6168836;23;20028;-90
2022/07/10 09:29:12;;;;;;;0.10;0.10;;;;;;;;;;6189141;23;20016;-92
2022/07/10 09:31:54;;;;;;;0.10;0.10;;;;;;;;;;6167479;23;20264;-91
2022/07/10 09:34:42;;;;;;;0.10;0.10;;;;;;;;;;6189254;23;20012;-92
2022/07/10 09:37:34;;;;;;;0.10;0.10;;;;;;;;;;6210655;23;20398;-91
2022/07/10 09:40:03;;;;;;;0.10;0.10;;;;;;;;;;6187510;23;20012;-92
2022/07/10 09:42:30;;;;;;;0.10;0.10;;;;;;;;;;6189994;23;20016;-93
2022/07/10 09:45:19;;;;;;;0.10;0.10;;;;;;;;;;6188603;23;20129;-92
2022/07/10 09:47:46;;;;;;;0.10;0.10;;;;;;;;;;6194002;23;20026;-91
2022/07/10 09:50:22;;;;;;;0.10;0.10;;;;;;;;;;6188330;23;20016;-92
2022/07/10 09:52:58;;;;;;;0.20;0.20;;;;;;;;;;6169431;23;20008;-92
2022/07/10 09:55:29;;;;;;;0.10;0.10;;;;;;;;;;6164116;23;20021;-92
2022/07/10 09:57:55;;;;;;;0.10;0.10;;;;;;;;;;6188242;23;20009;-92
2022/07/10 10:00:25;;;;;;;0.10;0.10;;;;;;;;;;6187578;23;20025;-91
2022/07/10 10:02:51;;;;;;;0.10;0.10;;;;;;;;;;6164254;23;20022;-92
2022/07/10 10:05:17;;;;;;;0.10;0.10;;;;;;;;;;6164079;23;20023;-92
2022/07/10 10:07:44;;;;;;;0.10;0.10;;;;;;;;;;6163974;23;20500;-92
2022/07/10 10:10:12;;;;;;;0.10;0.10;;;;;;;;;;6163526;23;20341;-92
2022/07/10 10:12:47;;;;;;;0.10;0.10;;;;;;;;;;6164143;23;20009;-92
2022/07/10 10:15:13;;;;;;;0.80;0.77;;;;;;;;;;6163503;23;20021;-92
2022/07/10 10:17:39;;;;;;;2.33;0.25;;;;;;;;;;6163602;23;20013;-92
2022/07/10 10:22:50;;;;;;;0.10;0.10;;;;;;;;;;6167537;23;20021;-92
2022/07/10 10:25:17;;;;;;;0.10;0.10;;;;;;;;;;6163717;23;20017;-92
2022/07/10 10:27:43;;;;;;;0.10;0.10;;;;;;;;;;6163783;23;20023;-92
2022/07/10 10:30:09;;;;;;;0.10;0.10;;;;;;;;;;6163164;23;20067;-92
2022/07/10 10:32:39;;;;;;;0.10;0.10;;;;;;;;;;6164042;23;20401;-93
2022/07/10 10:35:09;;;;;;;0.20;0.20;;;;;;;;;;6164263;23;20337;-92
2022/07/10 10:37:39;;;;;;;0.10;0.10;;;;;;;;;;6164914;23;20451;-93
2022/07/10 10:40:09;;;;;;;0.10;0.10;;;;;;;;;;6163787;23;20012;-91
2022/07/10 10:42:38;;;;;;;0.10;0.10;;;;;;;;;;6163680;23;20017;-93
2022/07/10 10:45:23;;;;;;;0.10;0.10;;;;;;;;;;6188438;23;20016;-93
2022/07/10 10:48:06;;;;;;;0.10;0.10;;;;;;;;;;6164024;23;20017;-92
2022/07/10 10:50:47;;;;;;;0.10;0.10;;;;;;;;;;6163993;23;20056;-92
2022/07/10 10:53:20;;;;;;;0.20;0.20;;;;;;;;;;6188583;23;20032;-93
2022/07/10 10:56:08;;;;;;;0.10;0.10;;;;;;;;;;6164618;23;20016;-93
2022/07/10 10:58:41;;;;;;;0.10;0.10;;;;;;;;;;6163296;23;20044;-93
2022/07/10 11:01:25;;;;;;;0.10;0.10;;;;;;;;;;6179919;23;20374;-92
2022/07/10 11:04:10;;;;;;;0.10;0.10;;;;;;;;;;6176638;23;20012;-92
2022/07/10 11:06:39;;;;;;;0.10;0.10;;;;;;;;;;6188136;23;20092;-92
2022/07/10 11:09:41;;;;;;;0.10;0.10;;;;;;;;;;6187851;23;20415;-92
2022/07/10 11:12:08;;;;;;;0.10;0.10;;;;;;;;;;6098829;23;20341;-93
2022/07/10 11:14:36;;;;;;;0.10;0.10;;;;;;;;;;6121515;23;20461;-92
2022/07/10 11:17:02;;;;;;;0.10;0.10;;;;;;;;;;6178530;23;20023;-92
2022/07/10 11:19:29;;;;;;;0.10;0.10;;;;;;;;;;6187594;23;20012;-93
2022/07/10 11:21:56;;;;;;;0.10;0.10;;;;;;;;;;6177260;23;20108;-93
2022/07/10 11:24:32;;;;;;;0.10;0.10;;;;;;;;;;6187810;23;20338;-88
2022/07/10 11:27:03;;;;;;;0.10;0.10;;;;;;;;;;6180270;23;20015;-92
2022/07/10 11:29:29;;;;;;;0.10;0.10;;;;;;;;;;6192852;23;20012;-91
2022/07/10 11:31:55;;;;;;;0.10;0.10;;;;;;;;;;6181581;23;20023;-92
2022/07/10 11:34:24;;;;;;;0.10;0.10;;;;;;;;;;6192654;23;20019;-92
2022/07/10 11:36:52;;;;;;;0.10;0.10;;;;;;;;;;6188050;23;20044;-93
2022/07/10 11:39:18;;;;;;;0.43;0.43;;;;;;;;;;6184797;23;20009;-92
2022/07/10 11:41:44;;;;;;;0.10;0.10;;;;;;;;;;6189346;23;20505;-92
2022/07/10 11:44:17;;;;;;;0.10;0.10;;;;;;;;;;6181807;23;20059;-92
2022/07/10 11:46:44;;;;;;;;;;;;;;;;;;6190503;23;20020;-92
2022/07/10 11:49:10;;;;;;;0.10;0.10;;;;;;;;;;6182308;23;19911;-92
2022/07/10 11:51:37;;;;;;;0.10;0.10;;;;;;;;;;6184775;23;20045;-93
2022/07/10 11:54:06;;;;;;;0.10;0.10;;;;;;;;;;6180578;23;20013;-92
2022/07/10 11:56:33;;;;;;;0.10;0.10;;;;;;;;;;6190465;23;20020;-92
2022/07/10 11:59:00;;;;;;;0.10;0.10;;;;;;;;;;6192170;23;20337;-93
2022/07/10 12:01:26;;;;;;;0.10;0.10;;;;;;;;;;6166353;23;20210;-93
2022/07/10 12:04:00;;;;;;;0.10;0.10;;;;;;;;;;6190000;23;20016;-91
2022/07/10 12:06:26;;;;;;;0.10;0.10;;;;;;;;;;6190362;23;20013;-89
2022/07/10 12:08:53;;;;;;;0.10;0.10;;;;;;;;;;6189893;23;20035;-92
2022/07/10 12:11:20;;;;;;;0.20;0.20;;;;;;;;;;6165223;23;20020;-91
2022/07/10 12:13:46;;;;;;;0.10;0.10;;;;;;;;;;6169257;23;20059;-93
2022/07/10 12:16:12;;;;;;;0.10;0.10;;;;;;;;;;6189907;23;20414;-92
2022/07/10 12:18:41;;;;;;;0.10;0.10;;;;;;;;;;6167430;23;20013;-92
2022/07/10 12:21:07;;;;;;;0.20;0.20;;;;;;;;;;6189129;23;20314;-93
2022/07/10 12:23:34;;;;;;;0.10;0.10;;;;;;;;;;6166637;23;20058;-93
2022/07/10 12:26:03;;;;;;;0.10;0.10;;;;;;;;;;6189125;23;20095;-92
2022/07/10 12:28:30;;;;;;;0.10;0.10;;;;;;;;;;6165728;23;20023;-92
2022/07/10 12:30:56;;;;;;;0.10;0.10;;;;;;;;;;6189781;23;20052;-92
2022/07/10 12:33:23;;;;;;;0.10;0.10;;;;;;;;;;6165053;23;20013;-93
2022/07/10 12:35:58;;;;;;;0.20;0.20;;;;;;;;;;6189529;23;20453;-92
2022/07/10 12:38:30;;;;;;;0.32;0.30;;;;;;;;;;6164163;23;20012;-93
2022/07/10 12:41:12;;;;;;;0.10;0.10;;;;;;;;;;6189723;23;20023;-92
2022/07/10 12:43:38;;;;;;;0.10;0.10;;;;;;;;;;6167802;23;20095;-94
2022/07/10 12:46:11;;;;;;;0.10;0.10;;;;;;;;;;6189293;23;20016;-93
2022/07/10 12:48:37;;;;;;;0.10;0.10;;;;;;;;;;6167219;23;20395;-93
2022/07/10 12:51:23;;;;;;;0.10;0.10;;;;;;;;;;6189271;23;20469;-92
2022/07/10 12:53:50;;;;;;;0.10;0.10;;;;;;;;;;6169945;23;20008;-93
2022/07/10 12:56:35;;;;;;;0.10;0.10;;;;;;;;;;6165279;23;20012;-92
2022/07/10 12:59:01;;;;;;;0.10;0.10;;;;;;;;;;6214132;23;20445;-94
2022/07/10 13:01:29;;;;;;;0.10;0.10;;;;;;;;;;6185831;23;20020;-93
2022/07/10 13:03:58;;;;;;;0.10;0.10;;;;;;;;;;6189882;23;20016;-92
2022/07/10 13:06:31;;;;;;;0.10;0.10;;;;;;;;;;6165032;23;20017;-92
2022/07/10 13:08:57;;;;;;;0.30;0.30;;;;;;;;;;6188583;23;20016;-92
2022/07/10 13:11:25;;;;;;;0.10;0.10;;;;;;;;;;6188884;23;20066;-90
2022/07/10 13:13:51;;;;;;;0.10;0.10;;;;;;;;;;6165946;23;20012;-92
2022/07/10 13:16:20;;;;;;;0.17;0.17;;;;;;;;;;6165825;23;20012;-96
2022/07/10 13:18:52;;;;;;;0.10;0.10;;;;;;;;;;6196966;23;20063;-96
2022/07/10 13:21:18;;;;;;;0.10;0.10;;;;;;;;;;6223175;23;20016;-96
2022/07/10 13:24:56;;;;;;;0.10;0.10;;;;;;;;;;6199939;23;20020;-96
2022/07/10 13:27:36;;;;;;;0.20;0.20;;;;;;;;;;6103778;23;20081;-96
2022/07/10 13:30:04;;;;;;;0.10;0.10;;;;;;;;;;6018464;23;20015;-92
2022/07/10 13:32:34;;;;;;;0.10;0.10;;;;;;;;;;6177418;23;20007;-92
2022/07/10 13:35:00;;;;;;;0.10;0.10;;;;;;;;;;6202793;23;20012;-94
2022/07/10 13:37:27;;;;;;;0.10;0.10;;;;;;;;;;6179134;23;20023;-94
2022/07/10 13:39:54;;;;;;;0.10;0.10;;;;;;;;;;6205195;23;20000;-93
2022/07/10 13:42:21;;;;;;;0.10;0.10;;;;;;;;;;6178109;23;20013;-92
2022/07/10 13:44:55;;;;;;;0.10;0.10;;;;;;;;;;6185036;23;20018;-94
2022/07/10 13:47:24;;;;;;;0.10;0.10;;;;;;;;;;6210244;23;20017;-96
2022/07/10 13:50:21;;;;;;;0.10;0.10;;;;;;;;;;6218101;23;20095;-94
2022/07/10 13:52:47;;;;;;;0.10;0.10;;;;;;;;;;6197977;23;20095;-92
2022/07/10 13:55:13;;;;;;;0.10;0.10;;;;;;;;;;6190409;23;20012;-93
2022/07/10 13:57:48;;;;;;;0.10;0.10;;;;;;;;;;6168179;23;20062;-94
2022/07/10 14:00:17;;;;;;;2.65;0.20;;;;;;;;;;6221359;23;20020;-94
2022/07/10 14:02:44;;;;;;;0.10;0.10;;;;;;;;;;6196608;23;20024;-91
2022/07/10 14:05:10;;;;;;;0.10;0.10;;;;;;;;;;6194594;23;20012;-95
2022/07/10 14:08:19;;;;;;;0.10;0.10;;;;;;;;;;6170448;23;20047;-95
2022/07/10 14:10:47;;;;;;;0.20;0.20;;;;;;;;;;6221606;23;20016;-93
2022/07/10 14:13:13;;;;;;;0.10;0.10;;;;;;;;;;6169138;23;20019;-94
2022/07/10 14:15:40;;;;;;;0.10;0.10;;;;;;;;;;6170449;23;20047;-95
2022/07/10 14:18:34;;;;;;;0.10;0.10;;;;;;;;;;6224354;23;20117;-95
2022/07/10 14:21:03;;;;;;;0.30;0.30;;;;;;;;;;6178415;23;20012;-96
2022/07/10 14:23:56;;;;;;;0.10;0.10;;;;;;;;;;6177901;23;20023;-96
2022/07/10 14:26:35;;;;;;;0.10;0.10;;;;;;;;;;6227004;23;20016;-93
2022/07/10 14:29:07;;;;;;;0.10;0.10;;;;;;;;;;6192849;23;20045;-90
2022/07/10 14:31:33;;;;;;;0.10;0.10;;;;;;;;;;6170794;23;20083;-90
2022/07/10 14:33:59;;;;;;;0.10;0.10;;;;;;;;;;6196896;23;20087;-95
2022/07/10 14:36:28;;;;;;;0.10;0.10;;;;;;;;;;6171544;23;20016;-91
2022/07/10 14:38:54;;;;;;;0.10;0.10;;;;;;;;;;6194233;23;20097;-91
2022/07/10 14:41:20;;;;;;;0.10;0.10;;;;;;;;;;6168473;23;20023;-93
2022/07/10 14:43:46;;;;;;;0.10;0.10;;;;;;;;;;6169143;23;20016;-91
2022/07/10 14:46:12;;;;;;;0.10;0.10;;;;;;;;;;6168904;23;20459;-95
2022/07/10 14:49:02;;;;;;;0.10;0.10;;;;;;;;;;6202589;22;20004;-95
2022/07/10 14:51:29;;;;;;;0.10;0.10;;;;;;;;;;6183058;23;20013;-94
2022/07/10 14:54:14;;;;;;;0.10;0.10;;;;;;;;;;6175164;23;20012;-96
2022/07/10 14:56:40;;;;;;;0.10;0.10;;;;;;;;;;6230564;23;20070;-94
2022/07/10 14:59:08;;;;;;;0.10;0.10;;;;;;;;;;6172619;23;20016;-94
2022/07/10 15:01:44;;;;;;;0.10;0.10;;;;;;;;;;6165614;22;20092;-96
2022/07/10 15:04:12;;;;;;;0.10;0.10;;;;;;;;;;6171603;23;20017;-95